Sakaide Maru — 3EYR6 — position and weather

sailwx.info

Track history (hours):
 
Tides and Currents Weather Stations Pressure Air Temp Water Temp Dewpoint Dewpoint Depression Visibility Wind Speed Wind Dir Waves Ship Positions

Sakaide Maru

Last reported at 2015-Feb-23 15:15 UTC. Time now 2015-Mar-02 03:40 UTC.
Position N 33°53' E 134°58'.

Length 255 m; draft 7.8 m.

Type: Cargo ship. MMSI: 354898000.

Date/timePositionNaut miles runAvg speedWind from/ knotsBaromVisibWave heightAir tempDewpointWater temp
2015-Feb-23 15:15N 33°53' E 134°58'913.1
2015-Feb-23 14:33N 34°02' E 134°58'1212.2
2015-Feb-23 13:33N 34°14' E 134°58'1211.9
2015-Feb-23 12:33N 34°26' E 135°02'10 9.8
2015-Feb-23 11:33N 34°35' E 135°04'1010.1
2015-Feb-23 10:33N 34°35' E 134°52'1514.2
2015-Feb-23 09:30N 34°29' E 134°36'  
2015-Feb-19 21:33N 34°35' E 134°53'10 9.8
2015-Feb-19 20:33N 34°35' E 135°05'4 4.0
2015-Feb-19 19:33N 34°34' E 135°10'0 0.1
2015-Feb-19 18:27N 34°34' E 135°10'0 0.1
2015-Feb-19 17:33N 34°34' E 135°10'0 0.0
2015-Feb-19 16:33N 34°34' E 135°10'0 0.1
2015-Feb-19 15:33N 34°34' E 135°10'0 0.0
2015-Feb-19 14:33N 34°34' E 135°10'0 0.1
2015-Feb-19 13:33N 34°34' E 135°10'0 0.0
2015-Feb-19 12:33N 34°34' E 135°10'0 0.0
2015-Feb-19 11:33N 34°34' E 135°10'0 0.1
2015-Feb-19 10:27N 34°34' E 135°10'0 0.0
2015-Feb-19 09:33N 34°34' E 135°10'0 0.0
2015-Feb-19 08:33N 34°34' E 135°10'0 0.0
2015-Feb-19 07:33N 34°34' E 135°10'0 0.0
2015-Feb-19 06:33N 34°34' E 135°10'0 0.0
2015-Feb-19 05:33N 34°34' E 135°10'0 0.0
2015-Feb-19 04:33N 34°34' E 135°10'3 2.6
2015-Feb-19 03:33N 34°32' E 135°08'1111.4
2015-Feb-19 02:33N 34°22' E 135°02'1211.5
2015-Feb-19 01:33N 34°10' E 135°00'8 7.6
2015-Feb-19 00:34N 34°03' E 134°59'9 8.3
2015-Feb-18 23:30N 33°54' E 134°58'5 4.6
2015-Feb-18 22:23N 33°49' E 134°60'  
Track history (hours):
 
Tides and Currents Weather Stations Pressure Air Temp Water Temp Dewpoint Dewpoint Depression Visibility Wind Speed Wind Dir Waves Ship Positions

Sakaide Maru

Last reported at 2015-Feb-23 15:15 UTC. Time now 2015-Mar-02 03:40 UTC.
Position N 33°53' E 134°58'.

Length 255 m; draft 7.8 m.

Type: Cargo ship. MMSI: 354898000.

Date/timePositionNaut miles runAvg speedWind from/ knotsBaromVisibWave heightAir tempDewpointWater temp
2015-Feb-23 15:15N 33°53' E 134°58'913.1
2015-Feb-23 14:33N 34°02' E 134°58'1212.2
2015-Feb-23 13:33N 34°14' E 134°58'1211.9
2015-Feb-23 12:33N 34°26' E 135°02'10 9.8
2015-Feb-23 11:33N 34°35' E 135°04'1010.1
2015-Feb-23 10:33N 34°35' E 134°52'1514.2
2015-Feb-23 09:30N 34°29' E 134°36'  
2015-Feb-19 21:33N 34°35' E 134°53'10 9.8
2015-Feb-19 20:33N 34°35' E 135°05'4 4.0
2015-Feb-19 19:33N 34°34' E 135°10'0 0.1
2015-Feb-19 18:27N 34°34' E 135°10'0 0.1
2015-Feb-19 17:33N 34°34' E 135°10'0 0.0
2015-Feb-19 16:33N 34°34' E 135°10'0 0.1
2015-Feb-19 15:33N 34°34' E 135°10'0 0.0
2015-Feb-19 14:33N 34°34' E 135°10'0 0.1
2015-Feb-19 13:33N 34°34' E 135°10'0 0.0
2015-Feb-19 12:33N 34°34' E 135°10'0 0.0
2015-Feb-19 11:33N 34°34' E 135°10'0 0.1
2015-Feb-19 10:27N 34°34' E 135°10'0 0.0
2015-Feb-19 09:33N 34°34' E 135°10'0 0.0
2015-Feb-19 08:33N 34°34' E 135°10'0 0.0
2015-Feb-19 07:33N 34°34' E 135°10'0 0.0
2015-Feb-19 06:33N 34°34' E 135°10'0 0.0
2015-Feb-19 05:33N 34°34' E 135°10'0 0.0
2015-Feb-19 04:33N 34°34' E 135°10'3 2.6
2015-Feb-19 03:33N 34°32' E 135°08'1111.4
2015-Feb-19 02:33N 34°22' E 135°02'1211.5
2015-Feb-19 01:33N 34°10' E 135°00'8 7.6
2015-Feb-19 00:34N 34°03' E 134°59'9 8.3
2015-Feb-18 23:30N 33°54' E 134°58'5 4.6
2015-Feb-18 22:23N 33°49' E 134°60'  

Dump ship's entire track history